Latest Weather Observations for Fort Denison

IDN60801

Issued at 11:52 pm EDT Friday 15 November 2019 (issued every 10 minutes, with the page automatically refreshed every 10 minutes)

About weather observations | Map of weather stations | Latest weather observations for NSW | Other Formats
Station Details ID: 066022 Name: FORT DENISON Lat: -33.86 Lon: 151.23 Height: 5.0 m
Data from the previous 72 hours. | See also: Recent months for locations in New South Wales
Date/Time
EDT
Temp
°C
App
Temp
°C
Dew
Point
°C
Rel
Hum
%
Delta-T
°C
Wind Press
QNH
hPa
Press
MSL
hPa
Rain since
9am
mm
Dir  Spd
km/h
Gust
km/h
Spd
kts
Gust
kts
15/11:30pm - - - - - S 30 48 16 26 - - -
15/11:20pm - - - - - S 28 52 15 28 - - -
15/11:00pm - - - - - SSW 24 44 13 24 - - -
15/10:30pm - - - - - SSW 26 35 14 19 - - -
15/10:00pm - - - - - W 20 28 11 15 - - -
15/09:30pm - - - - - W 20 26 11 14 - - -
15/09:00pm - - - - - W 24 35 13 19 - - -
15/08:30pm - - - - - W 22 32 12 17 - - -
15/08:00pm - - - - - WNW 19 32 10 17 - - -
15/07:30pm - - - - - WNW 22 30 12 16 - - -
15/07:00pm - - - - - WNW 20 33 11 18 - - -
15/06:30pm - - - - - WSW 11 26 6 14 - - -
15/06:00pm - - - - - WNW 24 32 13 17 - - -
15/05:30pm - - - - - NE 15 28 8 15 - - -
15/05:00pm - - - - - NE 13 20 7 11 - - -
15/04:30pm - - - - - NE 17 30 9 16 - - -
15/04:00pm - - - - - NE 11 17 6 9 - - -
15/03:30pm - - - - - NE 17 26 9 14 - - -
15/03:00pm - - - - - NE 17 30 9 16 - - -
15/02:30pm - - - - - ENE 26 30 14 16 - - -
15/02:00pm - - - - - E 19 24 10 13 - - -
15/01:30pm - - - - - ENE 22 26 12 14 - - -
15/01:00pm - - - - - E 11 22 6 12 - - -
15/12:30pm - - - - - W 6 13 3 7 - - -
15/12:00pm - - - - - W 9 17 5 9 - - -
15/11:30am - - - - - W 17 24 9 13 - - -
15/11:00am - - - - - WNW 9 13 5 7 - - -
15/10:30am - - - - - W 11 20 6 11 - - -
15/10:00am - - - - - W 15 20 8 11 - - -
15/09:30am - - - - - W 9 13 5 7 - - -
15/09:00am - - - - - W 6 7 3 4 - - -
15/08:30am - - - - - W 7 9 4 5 - - -
15/08:00am - - - - - W 9 11 5 6 - - -
15/07:30am - - - - - W 9 13 5 7 - - -
15/07:00am - - - - - W 6 7 3 4 - - -
15/06:30am - - - - - W 4 6 2 3 - - -
15/06:00am - - - - - CALM 0 2 0 1 - - -
15/05:30am - - - - - NNW 2 2 1 1 - - -
15/05:00am - - - - - WNW 4 6 2 3 - - -
15/04:30am - - - - - WNW 9 11 5 6 - - -
15/04:00am - - - - - WNW 11 13 6 7 - - -
15/03:30am - - - - - WNW 9 15 5 8 - - -
15/03:00am - - - - - WNW 15 17 8 9 - - -
15/02:30am - - - - - WNW 13 15 7 8 - - -
15/02:00am - - - - - NW 7 13 4 7 - - -
15/01:30am - - - - - WNW 4 7 2 4 - - -
15/01:00am - - - - - W 4 11 2 6 - - -
15/12:30am - - - - - NNW 4 6 2 3 - - -
15/12:00am - - - - - CALM 0 2 0 1 - - -
 
Date/Time
EDT
Temp
°C
App
Temp
°C
Dew
Point
°C
Rel
Hum
%
Delta-T
°C
Wind Press
QNH
hPa
Press
MSL
hPa
Rain since
9am
mm
Dir  Spd
km/h
Gust
km/h
Spd
kts
Gust
kts
14/11:30pm - - - - - ENE 2 2 1 1 - - -
14/11:00pm - - - - - NNE 4 7 2 4 - - -
14/10:30pm - - - - - NE 4 7 2 4 - - -
14/10:00pm - - - - - NE 7 13 4 7 - - -
14/09:30pm - - - - - ENE 6 11 3 6 - - -
14/09:00pm - - - - - NNE 6 11 3 6 - - -
14/08:30pm - - - - - NE 9 19 5 10 - - -
14/08:00pm - - - - - NE 9 17 5 9 - - -
14/07:30pm - - - - - NE 15 26 8 14 - - -
14/07:00pm - - - - - NE 11 30 6 16 - - -
14/06:30pm - - - - - ENE 17 30 9 16 - - -
14/06:00pm - - - - - ENE 17 32 9 17 - - -
14/05:30pm - - - - - NE 20 33 11 18 - - -
14/05:00pm - - - - - NE 20 32 11 17 - - -
14/04:30pm - - - - - NE 19 32 10 17 - - -
14/04:00pm - - - - - ENE 22 32 12 17 - - -
14/03:30pm - - - - - NE 15 24 8 13 - - -
14/03:00pm - - - - - ENE 20 33 11 18 - - -
14/02:30pm - - - - - ENE 26 32 14 17 - - -
14/02:00pm - - - - - E 26 32 14 17 - - -
14/01:30pm - - - - - E 26 30 14 16 - - -
14/01:00pm - - - - - ENE 24 30 13 16 - - -
14/12:30pm - - - - - E 20 24 11 13 - - -
14/12:00pm - - - - - ESE 15 20 8 11 - - -
14/11:30am - - - - - ESE 17 19 9 10 - - -
14/11:00am - - - - - ESE 9 15 5 8 - - -
14/10:30am - - - - - NE 6 9 3 5 - - -
14/10:00am - - - - - ESE 6 11 3 6 - - -
14/09:30am - - - - - WSW 11 20 6 11 - - -
14/09:00am - - - - - WSW 9 19 5 10 - - -
14/08:30am - - - - - W 20 32 11 17 - - -
14/08:00am - - - - - W 22 30 12 16 - - -
14/07:30am - - - - - W 19 30 10 16 - - -
14/07:00am - - - - - W 11 19 6 10 - - -
14/06:30am - - - - - WNW 11 17 6 9 - - -
14/06:00am - - - - - WNW 15 22 8 12 - - -
14/05:30am - - - - - WNW 15 22 8 12 - - -
14/05:00am - - - - - W 17 22 9 12 - - -
14/04:30am - - - - - W 15 19 8 10 - - -
14/04:00am - - - - - W 15 20 8 11 - - -
14/03:30am - - - - - W 15 19 8 10 - - -
14/03:00am - - - - - W 15 20 8 11 - - -
14/02:30am - - - - - W 19 22 10 12 - - -
14/02:00am - - - - - W 15 19 8 10 - - -
14/01:30am - - - - - WNW 11 15 6 8 - - -
14/01:00am - - - - - WNW 17 20 9 11 - - -
14/12:30am - - - - - WNW 11 17 6 9 - - -
14/12:00am - - - - - WNW 11 13 6 7 - - -
 
Date/Time
EDT
Temp
°C
App
Temp
°C
Dew
Point
°C
Rel
Hum
%
Delta-T
°C
Wind Press
QNH
hPa
Press
MSL
hPa
Rain since
9am
mm
Dir  Spd
km/h
Gust
km/h
Spd
kts
Gust
kts
13/11:30pm - - - - - N 4 6 2 3 - - -
13/11:00pm - - - - - NE 2 4 1 2 - - -
13/10:30pm - - - - - NNW 9 11 5 6 - - -
13/10:00pm - - - - - N 9 19 5 10 - - -
13/09:30pm - - - - - N 7 13 4 7 - - -
13/09:00pm - - - - - N 6 7 3 4 - - -
13/08:30pm - - - - - NNE 9 17 5 9 - - -
13/08:00pm - - - - - NE 13 17 7 9 - - -
13/07:30pm - - - - - NE 11 19 6 10 - - -
13/07:00pm - - - - - ENE 15 28 8 15 - - -
13/06:30pm - - - - - ENE 17 28 9 15 - - -
13/06:00pm - - - - - ENE 20 28 11 15 - - -
13/05:30pm - - - - - E 24 30 13 16 - - -
13/05:00pm - - - - - E 22 28 12 15 - - -
13/04:30pm - - - - - E 22 28 12 15 - - -
13/04:00pm - - - - - E 22 28 12 15 - - -
13/03:30pm - - - - - E 20 26 11 14 - - -
13/03:00pm - - - - - E 19 24 10 13 - - -
13/02:30pm - - - - - ESE 19 24 10 13 - - -
13/02:00pm - - - - - ESE 22 28 12 15 - - -
13/01:30pm - - - - - ESE 22 30 12 16 - - -
13/01:00pm - - - - - ESE 20 30 11 16 - - -
13/12:30pm - - - - - ESE 19 24 10 13 - - -
13/12:00pm - - - - - SE 11 22 6 12 - - -
13/11:30am - - - - - SW 7 24 4 13 - - -
13/11:00am - - - - - WSW 19 39 10 21 - - -
13/10:30am - - - - - SW 15 24 8 13 - - -
13/10:00am - - - - - W 24 37 13 20 - - -
13/09:30am - - - - - W 24 33 13 18 - - -
13/09:00am - - - - - W 26 39 14 21 - - -
13/08:30am - - - - - WSW 28 43 15 23 - - -
13/08:00am - - - - - W 26 41 14 22 - - -
13/07:30am - - - - - WSW 32 44 17 24 - - -
13/07:00am - - - - - WSW 22 32 12 17 - - -
13/06:30am - - - - - WNW 13 22 7 12 - - -
13/06:00am - - - - - WNW 15 20 8 11 - - -
13/05:30am - - - - - W 15 19 8 10 - - -
13/05:00am - - - - - W 13 19 7 10 - - -
13/04:30am - - - - - SSW 11 17 6 9 - - -
13/04:00am - - - - - WSW 9 13 5 7 - - -
13/03:30am - - - - - SW 7 15 4 8 - - -
13/03:00am - - - - - S 9 15 5 8 - - -
13/02:30am - - - - - SSW 9 19 5 10 - - -
13/02:00am - - - - - SSW 13 20 7 11 - - -
13/01:30am - - - - - S 13 26 7 14 - - -
13/01:00am - - - - - S 17 32 9 17 - - -
13/12:30am - - - - - SSE 24 41 13 22 - - -
13/12:00am - - - - - SSE 26 43 14 23 - - -

Other formats

Comma delimited format used in spreadsheet applications
http://www.bom.gov.au/fwo/IDN60801/IDN60801.94769.axf

JavaScript Object Notation format (JSON) in row-major order
http://www.bom.gov.au/fwo/IDN60801/IDN60801.94769.json

Data quality

Most of these data are generated automatically and are frequently updated. Quality checks on data are not normally performed. It is possible for incorrect values to appear. Refer to information at About Latest Weather Observations and please check the disclaimer before using these data.